Richmondale, Pennsylvania
Current Conditions -  °F | °C
As of 3:54 AM on Sunday 26 Oct 2014 (Local Time) from KAVP Reporting Station
Broken Clouds Broken Clouds  
Wind Chill: 53°   Ceiling: 7500
Heat Index: 53°   Visibility: 10mi
Dew Point: 37°   Wind: 7mph
Humidity: 55%   Direction: 320°NW
Pressure: 29.63"   Gusts: NA
Location:  41.6599°N, 75.4935°W
Report Text: KAVP 260754Z 32006KT 10SM SCT050 BKN075 12/03 A2963 RMK AO2 SLP029 T01170028
Loading
Personal Weather Stations






























Interactive Weather Map
Tropical Storm Tracking
New forecast layout! Learn more

10-Day Weather Forecast

Advertisements
Track Severe Weather on mobile